Aérodrome :







RETROUVEZ-NOUS SUR...

 
LOGIN :

S'inscrire | Disclaimer

   EN    FR    IT 

 









Légende :    VFR   VFR Marginal   IFR   IFR Intensif   IFR Très Intensif
Visi : 
Plafond : 
>= 8 km
>= 3000ft
5 à 8 km
1000 à 3000 ft
1500m à 5 km
500 à 1000 ft
800 à 1500m
200 à 500 ft
< 800m
< 200 ft
Symboles :   Orages  Brouillard  Fortes neiges  Fortes précipitations  Vent > 20 kt






- Altitude de l'aérodrome : 11 ft


KGHG - Marshfield Municipal George Harlow Field

DERNIER METAR :
  • 242135Z AUTO 21008G19KT 180V240 10SM CLR 14/M00 A2995 RMK AO2

METARs EXPIRÉS :
  • 242115Z AUTO 21008G17KT 10SM CLR 15/M00 A2995 RMK AO2
  • 242055Z AUTO 20012G17KT 10SM CLR 15/M00 A2995 RMK AO2
  • 242035Z AUTO 21009G19KT 10SM CLR 16/M01 A2996 RMK AO2
  • 242015Z AUTO 20010G18KT 160V230 10SM CLR 16/M00 A2996 RMK AO2
  • 241955Z AUTO 22014G21KT 10SM CLR 16/00 A2996 RMK AO2
  • 241935Z AUTO 20014G20KT 10SM CLR 16/M00 A2997 RMK AO2
  • 241915Z AUTO 20013G20KT 10SM CLR 16/M01 A2997 RMK AO2
  • 241855Z AUTO 23012G18KT 10SM CLR 17/M03 A2997 RMK AO2

TAF N/A



MET'MAP, la Météo Aéronautique d'un coup d'oeil ! - Copyright ORBIFLY Décembre 2007 - Disclaimer

ORBIFLY MET'MAP TEAM :

Programmation & Développement : Alexandra Zaïnal
Sur une idée originale de : Baudouin d'Aumeries
Assistance à la programmation : Marc-Olivier Méhu
Soutien technique & logistique : Manuel Goepfert

Contact : metmap@orbifly.com




SOURCES & CREDITS :

   NOAA